createdAt,value
2023-07-17T00:00:12.882Z,18.18
2023-07-17T00:02:41.888Z,18.33
2023-07-17T00:05:14.882Z,18.04
2023-07-17T00:07:44.206Z,18.09
2023-07-17T00:10:13.670Z,17.83
2023-07-17T00:12:42.827Z,18.03
2023-07-17T00:15:11.757Z,17.82
2023-07-17T00:17:40.234Z,17.72
2023-07-17T00:20:12.779Z,17.75
2023-07-17T00:22:43.830Z,18.01
2023-07-17T00:25:12.479Z,17.93
2023-07-17T00:27:40.992Z,17.74
2023-07-17T00:30:10.613Z,17.69
2023-07-17T00:32:38.988Z,17.70
2023-07-17T00:35:10.356Z,17.71
2023-07-17T00:37:39.128Z,17.63
2023-07-17T00:40:10.691Z,17.58
2023-07-17T00:42:39.631Z,17.52
2023-07-17T00:45:09.021Z,17.30
2023-07-17T00:47:38.647Z,17.56
2023-07-17T00:50:07.985Z,17.39
2023-07-17T00:52:36.775Z,17.50
2023-07-17T00:55:09.524Z,17.39
2023-07-17T00:57:38.262Z,17.37
2023-07-17T01:00:10.140Z,17.25
2023-07-17T01:02:40.651Z,17.29
2023-07-17T01:05:10.091Z,17.19
2023-07-17T01:07:40.386Z,17.26
2023-07-17T01:10:12.146Z,17.16
2023-07-17T01:12:40.664Z,17.11
2023-07-17T01:15:10.365Z,17.18
2023-07-17T01:17:38.893Z,17.20
2023-07-17T01:20:10.788Z,17.27
2023-07-17T01:22:55.126Z,17.02
2023-07-17T01:25:23.485Z,16.96
2023-07-17T01:27:58.056Z,16.85
2023-07-17T01:30:26.400Z,16.73
2023-07-17T01:32:55.217Z,16.63
2023-07-17T01:35:25.489Z,16.63
2023-07-17T01:37:55.174Z,16.37
2023-07-17T01:40:23.404Z,16.54
2023-07-17T01:42:53.933Z,16.57
2023-07-17T01:45:24.608Z,16.60
2023-07-17T01:47:53.021Z,16.80
2023-07-17T01:50:21.287Z,16.72
2023-07-17T01:52:49.655Z,16.72
2023-07-17T01:55:19.786Z,16.74
2023-07-17T01:57:48.053Z,16.95
2023-07-17T02:00:16.764Z,16.77
2023-07-17T02:02:46.446Z,16.75
2023-07-17T02:05:14.862Z,16.76
2023-07-17T02:07:43.703Z,16.76
2023-07-17T02:10:12.258Z,16.17
2023-07-17T02:12:41.841Z,16.78
2023-07-17T02:15:14.081Z,16.91
2023-07-17T02:17:42.537Z,16.86
2023-07-17T02:20:14.536Z,16.93
2023-07-17T02:22:42.984Z,17.14
2023-07-17T02:25:13.019Z,17.11
2023-07-17T02:27:42.798Z,17.02
2023-07-17T02:30:12.412Z,16.92
2023-07-17T02:32:41.246Z,16.52
2023-07-17T02:35:10.846Z,17.03
2023-07-17T02:37:39.175Z,16.93
2023-07-17T02:40:13.656Z,16.92
2023-07-17T02:42:43.458Z,16.87
2023-07-17T02:45:12.652Z,16.75
2023-07-17T02:47:40.986Z,16.97
2023-07-17T02:50:11.134Z,16.61
2023-07-17T02:52:39.564Z,16.90
2023-07-17T02:55:09.195Z,16.90
2023-07-17T02:57:38.654Z,16.94
2023-07-17T03:00:11.302Z,17.10
2023-07-17T03:02:42.364Z,17.01
2023-07-17T03:05:13.807Z,17.05
2023-07-17T03:07:46.200Z,17.04
2023-07-17T03:10:15.289Z,17.07
2023-07-17T03:12:43.612Z,16.98
2023-07-17T03:15:14.529Z,16.76
2023-07-17T03:17:43.039Z,16.79
2023-07-17T03:20:14.317Z,16.86
2023-07-17T03:22:42.863Z,16.70
2023-07-17T03:25:11.259Z,16.62
2023-07-17T03:27:39.713Z,16.70
2023-07-17T03:30:10.400Z,16.85
2023-07-17T03:32:40.562Z,16.89
2023-07-17T03:35:10.308Z,16.96
2023-07-17T03:37:38.541Z,16.97
2023-07-17T03:40:11.405Z,16.97
2023-07-17T03:42:39.979Z,16.90
2023-07-17T03:45:10.106Z,16.97
2023-07-17T03:47:41.260Z,16.94
2023-07-17T03:50:11.616Z,17.07
2023-07-17T03:52:40.308Z,17.06
2023-07-17T03:55:09.788Z,16.86
2023-07-17T03:57:38.059Z,16.97
2023-07-17T04:00:14.405Z,16.96
2023-07-17T04:02:45.579Z,16.92
2023-07-17T04:05:25.986Z,17.02
2023-07-17T04:07:54.551Z,17.03
2023-07-17T04:10:24.476Z,17.15
2023-07-17T04:12:52.888Z,16.97
2023-07-17T04:15:21.303Z,16.95
2023-07-17T04:17:51.164Z,16.98
2023-07-17T04:20:23.332Z,16.66
2023-07-17T04:22:51.741Z,16.74
2023-07-17T04:25:20.575Z,16.68
2023-07-17T04:27:49.014Z,16.70
2023-07-17T04:30:18.740Z,16.71
2023-07-17T04:32:47.716Z,16.68
2023-07-17T04:35:17.666Z,16.58
2023-07-17T04:37:46.190Z,16.77
2023-07-17T04:40:16.813Z,16.81
2023-07-17T04:42:48.215Z,17.03
2023-07-17T04:45:20.700Z,17.03
2023-07-17T04:47:49.826Z,17.00
2023-07-17T04:50:19.721Z,17.12
2023-07-17T04:52:48.131Z,17.16
2023-07-17T04:55:16.949Z,17.27
2023-07-17T04:57:45.248Z,17.28
2023-07-17T05:00:16.042Z,17.24
2023-07-17T05:02:45.249Z,17.44
2023-07-17T05:05:15.014Z,17.35
2023-07-17T05:07:44.792Z,17.52
2023-07-17T05:10:16.113Z,17.58
2023-07-17T05:12:44.856Z,17.65
2023-07-17T05:15:13.818Z,17.78
2023-07-17T05:17:42.869Z,17.80
2023-07-17T05:20:12.857Z,17.87
2023-07-17T05:22:41.547Z,17.92
2023-07-17T05:25:11.492Z,17.99
2023-07-17T05:27:39.976Z,18.04
2023-07-17T05:30:10.254Z,18.22
2023-07-17T05:32:39.163Z,18.38
2023-07-17T05:35:09.814Z,18.41
2023-07-17T05:37:42.739Z,18.38
2023-07-17T05:40:13.801Z,18.45
2023-07-17T05:42:42.097Z,18.57
2023-07-17T05:45:11.691Z,18.66
2023-07-17T05:47:40.745Z,18.80
2023-07-17T05:50:11.721Z,18.79
2023-07-17T05:52:40.510Z,18.71
2023-07-17T05:55:09.640Z,18.96
2023-07-17T05:57:39.702Z,19.22
2023-07-17T06:00:12.582Z,19.23
2023-07-17T06:02:44.104Z,19.46
2023-07-17T06:05:14.539Z,19.51
2023-07-17T06:07:44.822Z,19.47
2023-07-17T06:10:13.976Z,19.60
2023-07-17T06:12:43.748Z,19.92
2023-07-17T06:15:14.794Z,19.55
2023-07-17T06:17:44.755Z,19.60
2023-07-17T06:20:13.470Z,19.84
2023-07-17T06:22:41.916Z,19.68
2023-07-17T06:25:12.036Z,19.81
2023-07-17T06:27:41.111Z,19.66
2023-07-17T06:30:14.682Z,19.47
2023-07-17T06:32:43.265Z,19.78
2023-07-17T06:35:12.044Z,19.85
2023-07-17T06:37:40.309Z,19.79
2023-07-17T06:40:12.128Z,19.76
2023-07-17T06:42:40.763Z,19.92
2023-07-17T06:45:11.211Z,19.95
2023-07-17T06:47:40.904Z,20.09
2023-07-17T06:50:10.803Z,20.03
2023-07-17T06:52:40.275Z,20.08
2023-07-17T06:55:10.917Z,20.23
2023-07-17T06:57:39.366Z,20.59
2023-07-17T07:00:09.569Z,20.47
2023-07-17T07:02:40.352Z,20.55
2023-07-17T07:05:09.462Z,20.58
2023-07-17T07:07:37.939Z,20.57
2023-07-17T07:10:08.250Z,20.59
2023-07-17T07:12:36.960Z,20.73
2023-07-17T07:15:07.014Z,20.66
2023-07-17T07:17:35.315Z,20.82
2023-07-17T07:20:06.311Z,20.95
2023-07-17T07:22:34.937Z,21.02
2023-07-17T07:25:03.573Z,21.26
2023-07-17T07:27:32.618Z,21.30
2023-07-17T07:30:00.852Z,21.96
2023-07-17T07:32:29.170Z,21.54
2023-07-17T07:34:57.593Z,21.75
2023-07-17T07:37:27.353Z,21.64
2023-07-17T07:39:55.792Z,21.56
2023-07-17T07:42:24.271Z,21.46
2023-07-17T07:44:52.559Z,21.47
2023-07-17T07:47:27.519Z,21.56
2023-07-17T07:49:55.995Z,21.64
2023-07-17T07:52:25.820Z,21.46
2023-07-17T07:54:57.481Z,21.66
2023-07-17T07:57:26.507Z,22.10
2023-07-17T07:59:55.910Z,22.00
2023-07-17T08:02:25.127Z,21.81
2023-07-17T08:04:53.664Z,22.08
2023-07-17T08:07:26.220Z,21.98
2023-07-17T08:09:54.657Z,21.99
2023-07-17T08:12:22.912Z,21.13
2023-07-17T08:14:51.745Z,21.88
2023-07-17T08:17:20.075Z,22.18
2023-07-17T08:19:50.831Z,21.90
2023-07-17T08:22:19.172Z,21.83
2023-07-17T08:24:48.899Z,21.90
2023-07-17T08:27:17.463Z,22.24
2023-07-17T08:29:45.881Z,22.32
2023-07-17T08:32:14.092Z,22.77
2023-07-17T08:34:42.460Z,22.48
2023-07-17T08:37:11.288Z,22.14
2023-07-17T08:39:39.533Z,22.03
2023-07-17T08:42:12.997Z,22.12
2023-07-17T08:44:41.640Z,22.03
2023-07-17T08:47:10.628Z,22.53
2023-07-17T08:49:41.361Z,22.51
2023-07-17T08:52:12.122Z,22.39
2023-07-17T08:54:40.764Z,22.42
2023-07-17T08:57:11.773Z,22.99
2023-07-17T08:59:40.392Z,22.83
2023-07-17T09:02:08.774Z,23.14
2023-07-17T09:04:37.129Z,23.06
2023-07-17T09:07:05.904Z,23.17
2023-07-17T09:09:34.123Z,23.24
2023-07-17T09:12:11.511Z,23.49
2023-07-17T09:14:41.631Z,23.41
2023-07-17T09:17:11.744Z,23.30
2023-07-17T09:19:40.717Z,23.13
2023-07-17T09:22:09.959Z,22.95
2023-07-17T09:24:39.339Z,23.24
2023-07-17T09:27:09.998Z,23.19
2023-07-17T09:29:43.758Z,22.79
2023-07-17T09:32:20.903Z,23.31
2023-07-17T09:34:53.908Z,23.35
2023-07-17T09:37:22.320Z,23.35
2023-07-17T09:39:54.023Z,23.48
2023-07-17T09:42:26.989Z,23.28
2023-07-17T09:44:56.120Z,23.25
2023-07-17T09:47:24.630Z,23.00
2023-07-17T09:49:53.448Z,22.94
2023-07-17T09:52:22.614Z,22.59
2023-07-17T09:54:52.386Z,22.96
2023-07-17T09:57:30.120Z,23.05
2023-07-17T10:00:00.904Z,22.87
2023-07-17T10:02:35.634Z,23.08
2023-07-17T10:05:08.650Z,23.28
2023-07-17T10:07:39.889Z,22.83
2023-07-17T10:10:10.296Z,23.16
2023-07-17T10:12:41.690Z,23.25
2023-07-17T10:15:12.005Z,23.60
2023-07-17T10:17:40.456Z,23.46
2023-07-17T10:20:11.600Z,23.60
2023-07-17T10:22:45.320Z,23.10
2023-07-17T10:25:30.794Z,23.16
2023-07-17T10:28:02.481Z,23.23
2023-07-17T10:30:33.365Z,23.49
2023-07-17T10:33:11.974Z,23.40
2023-07-17T10:35:49.219Z,23.67
2023-07-17T10:39:18.194Z,23.87
2023-07-17T10:41:46.735Z,23.68
2023-07-17T10:44:21.718Z,23.62
2023-07-17T10:46:50.384Z,23.92
2023-07-17T10:49:19.970Z,23.50
2023-07-17T10:51:51.935Z,23.57
2023-07-17T10:54:21.328Z,23.93
2023-07-17T10:56:52.260Z,24.10
2023-07-17T10:59:22.761Z,24.18
2023-07-17T11:01:51.099Z,23.91
2023-07-17T11:04:20.318Z,23.85
2023-07-17T11:06:49.010Z,23.56
2023-07-17T11:09:17.971Z,23.94
2023-07-17T11:11:47.486Z,23.81
2023-07-17T11:14:16.289Z,23.79
2023-07-17T11:16:48.354Z,23.97
2023-07-17T11:19:17.474Z,24.12
2023-07-17T11:21:45.932Z,23.96
2023-07-17T11:24:14.427Z,24.11
2023-07-17T11:26:43.215Z,23.87
2023-07-17T11:29:11.583Z,24.09
2023-07-17T11:31:40.556Z,23.94
2023-07-17T11:34:12.275Z,23.64
2023-07-17T11:36:46.219Z,23.79
2023-07-17T11:39:16.612Z,24.12
2023-07-17T11:41:48.017Z,24.65
2023-07-17T11:44:18.169Z,24.79
2023-07-17T11:46:46.656Z,25.06
2023-07-17T11:49:16.450Z,24.82
2023-07-17T11:51:47.738Z,24.87
2023-07-17T11:54:16.428Z,25.20
2023-07-17T11:56:47.145Z,24.87
2023-07-17T11:59:20.535Z,25.11
2023-07-17T12:01:49.158Z,25.13
2023-07-17T12:04:20.144Z,25.21
2023-07-17T12:06:48.521Z,25.38
2023-07-17T12:09:17.093Z,25.24
2023-07-17T12:11:46.836Z,25.31
2023-07-17T12:14:16.199Z,25.13
2023-07-17T12:16:45.165Z,25.55
2023-07-17T12:19:13.913Z,24.54
2023-07-17T12:21:44.382Z,25.60
2023-07-17T12:24:14.439Z,25.77
2023-07-17T12:26:43.341Z,25.82
2023-07-17T12:29:12.215Z,26.11
2023-07-17T12:31:40.614Z,25.68
2023-07-17T12:34:10.701Z,25.81
2023-07-17T12:36:39.147Z,25.54
2023-07-17T12:39:16.619Z,24.55
2023-07-17T12:41:46.173Z,25.80
2023-07-17T12:44:14.486Z,25.75
2023-07-17T12:46:44.386Z,25.71
2023-07-17T12:49:14.511Z,26.14
2023-07-17T12:51:43.189Z,25.93
2023-07-17T12:54:13.047Z,25.69
2023-07-17T12:56:43.228Z,26.09
2023-07-17T12:59:11.607Z,26.18
2023-07-17T13:01:40.005Z,26.26
2023-07-17T13:04:08.360Z,25.92
2023-07-17T13:06:36.623Z,25.94
2023-07-17T13:09:05.295Z,25.96
2023-07-17T13:11:33.708Z,25.92
2023-07-17T13:14:03.976Z,26.00
2023-07-17T13:16:32.577Z,26.13
2023-07-17T13:19:01.129Z,26.37
2023-07-17T13:21:29.905Z,25.97
2023-07-17T13:23:59.923Z,25.88
2023-07-17T13:26:34.714Z,25.78
2023-07-17T13:29:08.355Z,25.57
2023-07-17T13:31:37.136Z,25.41
2023-07-17T13:34:05.675Z,25.40
2023-07-17T13:36:34.024Z,25.52
2023-07-17T13:39:02.605Z,25.17
2023-07-17T13:41:45.886Z,25.26
2023-07-17T13:44:16.794Z,24.47
2023-07-17T13:46:46.773Z,25.07
2023-07-17T13:49:15.456Z,24.25
2023-07-17T13:51:46.193Z,25.03
2023-07-17T13:54:19.973Z,25.04
2023-07-17T13:59:21.577Z,25.22
2023-07-17T14:01:49.956Z,24.89
2023-07-17T14:04:18.269Z,24.98
2023-07-17T14:06:47.120Z,25.16
2023-07-17T14:09:15.518Z,24.92
2023-07-17T14:11:53.793Z,24.86
2023-07-17T14:14:27.163Z,24.87
2023-07-17T14:16:55.844Z,25.05
2023-07-17T14:19:24.379Z,24.97
2023-07-17T14:21:53.084Z,24.85
2023-07-17T14:24:21.551Z,24.98
2023-07-17T14:26:50.260Z,24.76
2023-07-17T14:29:19.302Z,24.74
2023-07-17T14:31:49.116Z,24.62
2023-07-17T14:34:17.572Z,24.66
2023-07-17T14:36:46.060Z,24.70
2023-07-17T14:39:14.345Z,25.08
2023-07-17T14:41:42.864Z,24.78
2023-07-17T14:44:11.166Z,25.13
2023-07-17T14:46:39.460Z,25.33
2023-07-17T14:49:09.342Z,25.36
2023-07-17T14:51:37.770Z,25.41
2023-07-17T14:54:06.309Z,25.62
2023-07-17T14:56:34.720Z,25.48
2023-07-17T14:59:03.023Z,25.39
2023-07-17T15:01:31.535Z,25.26
2023-07-17T15:04:00.029Z,25.34
2023-07-17T15:06:30.294Z,25.33
2023-07-17T15:08:58.778Z,25.34
2023-07-17T15:11:27.112Z,25.45
2023-07-17T15:13:55.780Z,25.39
2023-07-17T15:16:24.219Z,25.23
2023-07-17T15:18:52.512Z,25.00
2023-07-17T15:21:20.912Z,24.90
2023-07-17T15:23:50.736Z,24.91
2023-07-17T15:26:20.060Z,24.73
2023-07-17T15:28:48.761Z,24.78
2023-07-17T15:31:17.053Z,24.80
2023-07-17T15:33:45.501Z,24.67
2023-07-17T15:36:14.238Z,24.79
2023-07-17T15:38:42.539Z,24.87
2023-07-17T15:41:14.348Z,24.82
2023-07-17T15:43:42.943Z,24.90
2023-07-17T15:46:11.348Z,24.84
2023-07-17T15:48:39.881Z,24.92
2023-07-17T15:51:08.179Z,24.55
2023-07-17T15:53:36.452Z,24.51
2023-07-17T15:56:04.932Z,24.44
2023-07-17T15:58:34.714Z,24.49
2023-07-17T16:01:05.577Z,24.55
2023-07-17T16:03:33.877Z,24.48
2023-07-17T16:06:12.210Z,23.60
2023-07-17T16:08:40.507Z,24.15
2023-07-17T16:11:08.939Z,24.07
2023-07-17T16:13:38.933Z,23.94
2023-07-17T16:16:07.661Z,23.86
2023-07-17T16:18:36.981Z,24.11
2023-07-17T16:21:05.393Z,24.21
2023-07-17T16:23:33.785Z,24.10
2023-07-17T16:26:02.087Z,24.18
2023-07-17T16:28:30.392Z,24.28
2023-07-17T16:31:00.053Z,24.42
2023-07-17T16:33:28.461Z,24.20
2023-07-17T16:35:56.710Z,24.36
2023-07-17T16:38:25.034Z,23.91
2023-07-17T16:40:53.361Z,23.85
2023-07-17T16:43:21.638Z,23.92
2023-07-17T16:45:53.884Z,23.82
2023-07-17T16:48:23.542Z,23.83
2023-07-17T16:50:51.827Z,23.95
2023-07-17T16:53:20.065Z,23.74
2023-07-17T16:55:48.479Z,23.73
2023-07-17T16:58:17.052Z,23.72
2023-07-17T17:00:45.303Z,23.70
2023-07-17T17:03:13.803Z,23.69
2023-07-17T17:05:43.595Z,23.72
2023-07-17T17:08:11.824Z,23.69
2023-07-17T17:10:40.176Z,23.65
2023-07-17T17:13:08.459Z,23.74
2023-07-17T17:15:36.862Z,23.62
2023-07-17T17:18:05.715Z,23.50
2023-07-17T17:20:35.226Z,23.62
2023-07-17T17:23:04.965Z,23.41
2023-07-17T17:25:33.291Z,23.78
2023-07-17T17:28:01.983Z,23.69
2023-07-17T17:30:30.545Z,23.59
2023-07-17T17:32:58.915Z,22.82
2023-07-17T17:35:27.294Z,23.55
2023-07-17T17:37:55.623Z,23.28
2023-07-17T17:40:25.267Z,23.30
2023-07-17T17:42:53.594Z,23.23
2023-07-17T17:45:21.900Z,23.22
2023-07-17T17:47:50.372Z,23.32
2023-07-17T17:50:18.890Z,23.34
2023-07-17T17:52:47.243Z,23.07
2023-07-17T17:55:15.694Z,23.10
2023-07-17T17:57:45.453Z,23.24
2023-07-17T18:00:15.438Z,23.28
2023-07-17T18:02:49.956Z,23.29
2023-07-17T18:05:18.505Z,23.22
2023-07-17T18:07:47.358Z,23.67
2023-07-17T18:10:15.771Z,23.47
2023-07-17T18:12:45.506Z,23.57
2023-07-17T18:15:14.301Z,23.66
2023-07-17T18:17:42.649Z,23.63
2023-07-17T18:20:11.988Z,23.68
2023-07-17T18:22:40.894Z,22.46
2023-07-17T18:25:12.789Z,23.47
2023-07-17T18:27:41.818Z,23.41
2023-07-17T18:30:12.687Z,23.48
2023-07-17T18:32:41.340Z,23.44
2023-07-17T18:35:11.053Z,23.53
2023-07-17T18:37:39.512Z,23.54
2023-07-17T18:40:10.994Z,23.14
2023-07-17T18:42:39.507Z,22.60
2023-07-17T18:45:11.833Z,22.93
2023-07-17T18:47:40.980Z,22.98
2023-07-17T18:50:10.556Z,22.79
2023-07-17T18:52:38.926Z,22.74
2023-07-17T18:55:08.837Z,22.85
2023-07-17T18:57:37.465Z,22.75
2023-07-17T19:00:10.066Z,22.53
2023-07-17T19:02:40.918Z,22.61
2023-07-17T19:05:10.410Z,22.47
2023-07-17T19:07:38.742Z,22.53
2023-07-17T19:10:08.671Z,22.28
2023-07-17T19:12:37.014Z,22.31
2023-07-17T19:15:08.134Z,22.21
2023-07-17T19:17:37.521Z,22.10
2023-07-17T19:20:08.404Z,22.08
2023-07-17T19:22:37.027Z,21.96
2023-07-17T19:25:06.391Z,22.10
2023-07-17T19:27:34.792Z,21.99
2023-07-17T19:30:03.107Z,22.03
2023-07-17T19:32:31.331Z,22.00
2023-07-17T19:34:59.622Z,22.13
2023-07-17T19:37:29.324Z,21.96
2023-07-17T19:39:57.765Z,21.85
2023-07-17T19:42:26.233Z,21.96
2023-07-17T19:44:57.364Z,22.01
2023-07-17T19:47:25.795Z,21.93
2023-07-17T19:49:54.288Z,22.00
2023-07-17T19:52:24.914Z,20.95
2023-07-17T19:54:54.542Z,22.40
2023-07-17T19:57:22.820Z,21.31
2023-07-17T19:59:51.279Z,21.12
2023-07-17T20:02:19.707Z,20.99
2023-07-17T20:04:49.050Z,20.73
2023-07-17T20:07:27.513Z,20.48
2023-07-17T20:09:57.156Z,20.38
2023-07-17T20:12:25.811Z,20.21
2023-07-17T20:14:54.048Z,20.07
2023-07-17T20:17:22.464Z,19.90
2023-07-17T20:19:50.729Z,19.99
2023-07-17T20:22:19.085Z,19.96
2023-07-17T20:24:48.831Z,19.86
2023-07-17T20:27:18.836Z,19.50
2023-07-17T20:29:47.627Z,19.39
2023-07-17T20:32:16.819Z,19.32
2023-07-17T20:34:45.484Z,19.45
2023-07-17T20:37:13.748Z,19.15
2023-07-17T20:39:42.207Z,19.09
2023-07-17T20:42:11.691Z,19.00
2023-07-17T20:44:41.284Z,18.84
2023-07-17T20:47:09.903Z,18.06
2023-07-17T20:49:40.265Z,19.02
2023-07-17T20:52:08.595Z,18.89
2023-07-17T20:54:37.047Z,18.72
2023-07-17T20:57:06.060Z,18.52
2023-07-17T20:59:34.617Z,18.57
2023-07-17T21:02:04.463Z,18.58
2023-07-17T21:04:32.897Z,18.43
2023-07-17T21:07:01.260Z,18.42
2023-07-17T21:09:29.649Z,18.77
2023-07-17T21:11:57.912Z,18.35
2023-07-17T21:14:26.434Z,18.31
2023-07-17T21:16:54.986Z,18.22
2023-07-17T21:19:24.633Z,17.96
2023-07-17T21:21:52.897Z,17.95
2023-07-17T21:24:21.765Z,17.60
2023-07-17T21:26:50.002Z,17.89
2023-07-17T21:29:18.323Z,17.54
2023-07-17T21:31:46.670Z,17.62
2023-07-17T21:34:14.923Z,17.49
2023-07-17T21:36:44.820Z,17.69
2023-07-17T21:39:13.073Z,17.40
2023-07-17T21:41:41.392Z,17.37
2023-07-17T21:44:10.019Z,17.30
2023-07-17T21:46:38.683Z,17.41
2023-07-17T21:49:07.077Z,17.35
2023-07-17T21:51:35.346Z,17.30
2023-07-17T21:54:05.089Z,17.35
2023-07-17T21:56:33.594Z,17.45
2023-07-17T21:59:01.960Z,17.26
2023-07-17T22:01:30.704Z,17.26
2023-07-17T22:03:59.196Z,17.25
2023-07-17T22:06:34.235Z,17.15
2023-07-17T22:09:04.282Z,17.06
2023-07-17T22:11:32.666Z,16.86
2023-07-17T22:14:02.528Z,16.79
2023-07-17T22:16:32.037Z,16.83
2023-07-17T22:19:00.574Z,16.58
2023-07-17T22:21:29.099Z,16.58
2023-07-17T22:23:57.471Z,16.63
2023-07-17T22:26:27.089Z,16.41
2023-07-17T22:28:56.942Z,16.47
2023-07-17T22:31:25.306Z,16.47
2023-07-17T22:33:54.081Z,16.19
2023-07-17T22:36:22.399Z,16.16
2023-07-17T22:38:50.753Z,16.24
2023-07-17T22:41:19.733Z,16.23
2023-07-17T22:43:49.573Z,16.25
2023-07-17T22:46:18.357Z,16.16
2023-07-17T22:48:46.689Z,16.27
2023-07-17T22:51:15.088Z,16.08
2023-07-17T22:53:43.344Z,16.03
2023-07-17T22:56:11.843Z,16.01
2023-07-17T22:58:40.210Z,16.09
2023-07-17T23:01:09.886Z,15.74
2023-07-17T23:03:38.163Z,15.77
2023-07-17T23:06:06.928Z,15.49
2023-07-17T23:08:35.257Z,15.43
2023-07-17T23:11:03.694Z,15.39
2023-07-17T23:13:31.992Z,15.54
2023-07-17T23:16:00.294Z,15.59
2023-07-17T23:18:30.112Z,15.57
2023-07-17T23:20:58.527Z,15.58
2023-07-17T23:23:26.884Z,15.59
2023-07-17T23:25:55.179Z,15.58
2023-07-17T23:28:25.518Z,15.56
2023-07-17T23:30:53.763Z,15.52
2023-07-17T23:33:22.088Z,15.46
2023-07-17T23:35:51.823Z,15.32
2023-07-17T23:38:20.755Z,15.20
2023-07-17T23:40:49.008Z,15.13
2023-07-17T23:43:17.218Z,15.08
2023-07-17T23:45:45.792Z,15.08
2023-07-17T23:48:14.721Z,15.02
2023-07-17T23:50:43.140Z,15.12
2023-07-17T23:53:12.736Z,15.03
2023-07-17T23:55:41.083Z,15.17
2023-07-17T23:58:10.213Z,15.13
